Time;durP1;ratioP1;P1;durP2;ratioP2;P2;SDS_P1;SDS_P2;PMS_P1;PMS_P2;Temp;Humidity;BMP_temperature;BMP_pressure;BME280_temperature;BME280_humidity;BME280_pressure;Samples;Min_cycle;Max_cycle;Signal;HPM_P1;HPM_P2
2021/03/04 00:00:07;;;;;;;8.95;6.95;;;;;;;;;;4984488;28;20178;-79
2021/03/04 00:02:33;;;;;;;9.10;5.82;;;;;;;;;;4983479;28;20207;-79
2021/03/04 00:04:59;;;;;;;7.47;6.18;;;;;;;;;;4983941;28;20215;-78
2021/03/04 00:07:24;;;;;;;9.80;6.27;;;;;;;;;;4963085;28;20231;-78
2021/03/04 00:09:50;;;;;;;7.43;6.20;;;;;;;;;;4966650;28;20810;-79
2021/03/04 00:12:16;;;;;;;11.00;6.57;;;;;;;;;;4983790;28;20469;-79
2021/03/04 00:14:42;;;;;;;9.10;6.50;;;;;;;;;;4984315;28;20446;-79
2021/03/04 00:17:08;;;;;;;10.10;7.35;;;;;;;;;;4983755;28;20195;-79
2021/03/04 00:19:34;;;;;;;8.65;6.22;;;;;;;;;;4984021;28;20198;-79
2021/03/04 00:22:01;;;;;;;10.88;7.32;;;;;;;;;;4963903;28;20550;-78
2021/03/04 00:24:26;;;;;;;11.73;5.97;;;;;;;;;;4983897;28;20187;-78
2021/03/04 00:26:52;;;;;;;8.10;5.97;;;;;;;;;;4967166;28;20195;-79
2021/03/04 00:29:18;;;;;;;9.63;6.50;;;;;;;;;;4970686;28;20439;-79
2021/03/04 00:31:45;;;;;;;10.75;7.05;;;;;;;;;;4983490;28;20235;-79
2021/03/04 00:34:11;;;;;;;6.70;6.00;;;;;;;;;;4984103;28;20184;-79
2021/03/04 00:36:37;;;;;;;11.80;6.88;;;;;;;;;;4966357;28;20176;-79
2021/03/04 00:39:05;;;;;;;11.05;6.30;;;;;;;;;;4986559;28;20180;-79
2021/03/04 00:41:31;;;;;;;7.65;6.15;;;;;;;;;;4987023;28;20211;-79
2021/03/04 00:43:57;;;;;;;6.83;6.17;;;;;;;;;;4986920;28;20194;-79
2021/03/04 00:46:23;;;;;;;11.63;7.30;;;;;;;;;;4987081;28;20609;-79
2021/03/04 00:48:49;;;;;;;11.10;7.70;;;;;;;;;;4987350;28;20581;-79
2021/03/04 00:51:15;;;;;;;16.67;9.20;;;;;;;;;;4988396;28;20424;-80
2021/03/04 00:53:41;;;;;;;16.67;9.73;;;;;;;;;;4966817;28;20470;-78
2021/03/04 00:56:07;;;;;;;11.63;8.63;;;;;;;;;;4966492;28;20447;-79
2021/03/04 00:58:33;;;;;;;11.53;9.03;;;;;;;;;;4987126;28;20435;-78
2021/03/04 01:00:59;;;;;;;12.17;8.23;;;;;;;;;;4967313;28;20440;-79
2021/03/04 01:03:25;;;;;;;10.35;7.80;;;;;;;;;;4987446;28;20462;-79
2021/03/04 01:05:51;;;;;;;12.98;8.55;;;;;;;;;;4987523;28;20180;-79
2021/03/04 01:08:17;;;;;;;10.35;7.43;;;;;;;;;;4966675;28;20223;-79
2021/03/04 01:10:43;;;;;;;13.23;8.57;;;;;;;;;;4966462;28;20184;-79
2021/03/04 01:13:09;;;;;;;14.13;8.85;;;;;;;;;;4986799;28;20286;-79
2021/03/04 01:15:35;;;;;;;12.18;9.15;;;;;;;;;;4969212;28;20191;-78
2021/03/04 01:18:05;;;;;;;13.95;8.45;;;;;;;;;;4987205;28;20176;-78
2021/03/04 01:20:31;;;;;;;12.05;8.75;;;;;;;;;;4987056;28;20183;-78
2021/03/04 01:22:57;;;;;;;13.93;9.68;;;;;;;;;;4986658;28;20615;-78
2021/03/04 01:25:23;;;;;;;13.70;7.70;;;;;;;;;;4986479;28;20176;-78
2021/03/04 01:27:51;;;;;;;12.13;8.40;;;;;;;;;;4967822;28;20248;-79
2021/03/04 01:30:18;;;;;;;9.35;8.00;;;;;;;;;;4987409;28;20419;-79
2021/03/04 01:32:44;;;;;;;11.20;7.97;;;;;;;;;;4987171;28;20199;-78
2021/03/04 01:35:10;;;;;;;9.83;7.57;;;;;;;;;;4966123;28;20219;-78
2021/03/04 01:37:37;;;;;;;10.20;7.60;;;;;;;;;;4986431;28;20459;-79
2021/03/04 01:40:10;;;;;;;11.25;6.95;;;;;;;;;;4966225;28;20192;-79
2021/03/04 01:42:36;;;;;;;8.38;7.18;;;;;;;;;;4968571;28;20296;-78
2021/03/04 01:45:03;;;;;;;11.00;8.25;;;;;;;;;;4985608;28;20179;-78
2021/03/04 01:47:30;;;;;;;10.10;7.32;;;;;;;;;;4986109;28;20228;-78
2021/03/04 01:49:56;;;;;;;9.30;6.93;;;;;;;;;;4985156;28;20270;-78
2021/03/04 01:52:22;;;;;;;11.15;8.18;;;;;;;;;;4966076;28;20199;-78
2021/03/04 01:54:48;;;;;;;10.02;7.20;;;;;;;;;;4985814;28;20296;-78
2021/03/04 01:57:14;;;;;;;15.68;6.88;;;;;;;;;;4986391;28;20216;-78
2021/03/04 01:59:41;;;;;;;9.70;7.55;;;;;;;;;;4986538;28;20250;-79
2021/03/04 02:02:07;;;;;;;11.15;7.55;;;;;;;;;;4985923;28;20214;-79
2021/03/04 02:04:33;;;;;;;12.50;8.70;;;;;;;;;;4965775;28;20180;-78
2021/03/04 02:07:08;;;;;;;12.00;7.63;;;;;;;;;;4965757;28;20180;-78
2021/03/04 02:09:34;;;;;;;11.95;7.38;;;;;;;;;;4985216;28;20191;-79
2021/03/04 02:12:15;;;;;;;10.43;7.15;;;;;;;;;;4984996;28;20246;-79
2021/03/04 02:14:47;;;;;;;10.63;7.00;;;;;;;;;;4986149;28;20191;-79
2021/03/04 02:17:14;;;;;;;9.20;6.72;;;;;;;;;;4985543;28;20214;-79
2021/03/04 02:20:09;;;;;;;12.32;8.90;;;;;;;;;;4985733;28;20191;-79
2021/03/04 02:23:11;;;;;;;10.40;7.55;;;;;;;;;;4887483;29;20219;-79
2021/03/04 02:25:37;;;;;;;11.57;7.95;;;;;;;;;;4868547;29;20259;-79
2021/03/04 02:28:03;;;;;;;12.30;7.18;;;;;;;;;;4853500;29;20215;-79
2021/03/04 02:30:36;;;;;;;10.18;8.20;;;;;;;;;;4869782;29;20720;-79
2021/03/04 02:33:05;;;;;;;8.98;6.75;;;;;;;;;;4868867;29;20279;-79
2021/03/04 02:35:34;;;;;;;10.02;7.35;;;;;;;;;;4853159;29;20609;-79
2021/03/04 02:38:01;;;;;;;13.80;7.82;;;;;;;;;;4853677;29;20196;-79
2021/03/04 02:40:30;;;;;;;10.82;8.20;;;;;;;;;;4853651;29;20587;-78
2021/03/04 02:42:56;;;;;;;8.13;6.97;;;;;;;;;;4868343;29;20208;-78
2021/03/04 02:45:24;;;;;;;11.70;7.85;;;;;;;;;;4868942;29;20195;-79
2021/03/04 02:47:51;;;;;;;13.68;8.68;;;;;;;;;;4868111;29;20227;-78
2021/03/04 02:50:17;;;;;;;10.52;7.60;;;;;;;;;;4853500;29;20299;-78
2021/03/04 02:52:44;;;;;;;11.25;7.78;;;;;;;;;;4853420;29;20271;-79
2021/03/04 02:55:10;;;;;;;10.40;8.27;;;;;;;;;;4868831;29;20275;-79
2021/03/04 02:57:39;;;;;;;10.35;7.68;;;;;;;;;;4867807;29;20240;-79
2021/03/04 03:00:06;;;;;;;10.45;8.23;;;;;;;;;;4975708;28;20188;-78
2021/03/04 03:02:33;;;;;;;12.32;7.50;;;;;;;;;;4985578;28;20204;-78
2021/03/04 03:04:59;;;;;;;12.00;8.32;;;;;;;;;;4984632;28;20188;-78
2021/03/04 03:07:26;;;;;;;14.13;8.85;;;;;;;;;;4983857;28;20180;-79
2021/03/04 03:09:52;;;;;;;10.65;8.93;;;;;;;;;;4984975;28;20187;-79
2021/03/04 03:12:19;;;;;;;14.98;8.55;;;;;;;;;;4967889;28;20250;-79
2021/03/04 03:14:45;;;;;;;14.60;8.98;;;;;;;;;;4984309;28;20172;-78
2021/03/04 03:17:11;;;;;;;13.18;8.00;;;;;;;;;;4964746;28;20196;-79
2021/03/04 03:19:37;;;;;;;11.43;7.88;;;;;;;;;;4984189;28;20190;-78
2021/03/04 03:22:03;;;;;;;12.70;7.65;;;;;;;;;;4964156;28;20216;-78
2021/03/04 03:24:29;;;;;;;10.70;8.05;;;;;;;;;;4967176;28;20548;-79
2021/03/04 03:26:55;;;;;;;11.63;8.75;;;;;;;;;;4984741;28;20183;-79
2021/03/04 03:29:21;;;;;;;13.05;8.82;;;;;;;;;;4984460;28;20234;-79
2021/03/04 03:31:48;;;;;;;14.98;8.98;;;;;;;;;;4984722;28;20194;-78
2021/03/04 03:34:14;;;;;;;13.63;8.60;;;;;;;;;;4984077;28;20198;-78
2021/03/04 03:36:41;;;;;;;13.02;9.20;;;;;;;;;;4984143;28;20202;-78
2021/03/04 03:39:08;;;;;;;11.80;9.10;;;;;;;;;;4985185;28;20183;-78
2021/03/04 03:41:35;;;;;;;15.60;7.72;;;;;;;;;;4964070;28;20203;-78
2021/03/04 03:44:01;;;;;;;9.98;8.93;;;;;;;;;;4983990;28;20192;-78
2021/03/04 03:46:31;;;;;;;10.82;8.23;;;;;;;;;;4983462;28;20176;-78
2021/03/04 03:48:57;;;;;;;11.75;8.15;;;;;;;;;;4984230;28;20196;-78
2021/03/04 03:51:23;;;;;;;11.90;8.60;;;;;;;;;;4984292;28;20188;-78
2021/03/04 03:53:50;;;;;;;13.85;8.15;;;;;;;;;;4983945;28;20172;-79
2021/03/04 03:56:16;;;;;;;16.17;8.65;;;;;;;;;;4983609;28;20211;-79
2021/03/04 03:58:42;;;;;;;12.00;8.93;;;;;;;;;;4984101;28;20705;-78
2021/03/04 04:01:09;;;;;;;17.67;11.00;;;;;;;;;;4984894;28;20195;-78
2021/03/04 04:03:35;;;;;;;12.50;8.88;;;;;;;;;;4984070;28;20203;-78
2021/03/04 04:06:02;;;;;;;14.88;8.88;;;;;;;;;;4982448;28;20176;-78
2021/03/04 04:08:29;;;;;;;14.68;8.85;;;;;;;;;;4983971;28;20183;-78
2021/03/04 04:10:55;;;;;;;15.88;9.63;;;;;;;;;;4984556;28;20180;-78
2021/03/04 04:13:22;;;;;;;14.07;8.73;;;;;;;;;;4986881;28;20187;-78
2021/03/04 04:15:48;;;;;;;11.75;8.85;;;;;;;;;;4987490;28;20191;-78
2021/03/04 04:18:14;;;;;;;10.90;8.30;;;;;;;;;;4970255;28;20195;-78
2021/03/04 04:20:41;;;;;;;17.13;10.30;;;;;;;;;;4987913;28;20438;-79
2021/03/04 04:23:07;;;;;;;15.32;8.95;;;;;;;;;;4970278;28;20227;-78
2021/03/04 04:25:35;;;;;;;14.93;8.18;;;;;;;;;;4987662;28;20212;-78
2021/03/04 04:28:01;;;;;;;11.73;9.10;;;;;;;;;;4987368;28;20192;-78
2021/03/04 04:30:27;;;;;;;13.50;8.60;;;;;;;;;;4987929;28;20171;-78
2021/03/04 04:32:53;;;;;;;10.88;8.85;;;;;;;;;;4988459;28;20430;-79
2021/03/04 04:35:19;;;;;;;12.30;9.50;;;;;;;;;;4987010;28;20195;-79
2021/03/04 04:37:45;;;;;;;13.52;9.55;;;;;;;;;;4966718;28;20459;-79
2021/03/04 04:40:11;;;;;;;11.95;8.35;;;;;;;;;;4987621;28;20187;-79
2021/03/04 04:42:38;;;;;;;11.10;8.70;;;;;;;;;;4987610;28;20219;-79
2021/03/04 04:45:06;;;;;;;11.10;8.30;;;;;;;;;;4988036;28;20176;-78
2021/03/04 04:47:32;;;;;;;12.18;9.05;;;;;;;;;;4986534;28;20219;-79
2021/03/04 04:49:58;;;;;;;10.60;8.50;;;;;;;;;;4987178;28;20234;-79
2021/03/04 04:52:24;;;;;;;11.85;9.00;;;;;;;;;;4987482;28;20477;-79
2021/03/04 04:54:50;;;;;;;9.73;8.35;;;;;;;;;;4969190;28;20238;-79
2021/03/04 04:57:17;;;;;;;12.48;8.77;;;;;;;;;;4987617;28;20212;-78
2021/03/04 04:59:42;;;;;;;11.25;8.10;;;;;;;;;;4988212;28;20180;-79
2021/03/04 05:02:08;;;;;;;16.60;9.48;;;;;;;;;;4966592;28;20463;-79
2021/03/04 05:04:34;;;;;;;13.23;9.60;;;;;;;;;;4987103;28;20215;-79
2021/03/04 05:07:00;;;;;;;15.53;9.53;;;;;;;;;;4966844;28;20451;-79
2021/03/04 05:09:27;;;;;;;15.03;9.30;;;;;;;;;;4969587;28;20474;-78
2021/03/04 05:11:53;;;;;;;13.65;9.20;;;;;;;;;;4970378;28;20503;-78
2021/03/04 05:14:19;;;;;;;12.82;8.70;;;;;;;;;;4986948;28;20527;-79
2021/03/04 05:16:45;;;;;;;14.25;10.07;;;;;;;;;;4986156;28;20187;-78
2021/03/04 05:19:11;;;;;;;11.20;9.37;;;;;;;;;;4985523;28;20191;-79
2021/03/04 05:21:37;;;;;;;13.93;9.53;;;;;;;;;;4987274;28;20592;-79
2021/03/04 05:24:03;;;;;;;14.00;8.50;;;;;;;;;;4986074;28;20922;-79
2021/03/04 05:26:29;;;;;;;10.90;9.27;;;;;;;;;;4972805;28;20227;-79
2021/03/04 05:28:55;;;;;;;15.95;10.48;;;;;;;;;;4986198;28;20709;-79
2021/03/04 05:31:21;;;;;;;15.07;10.23;;;;;;;;;;4984613;28;20187;-79
2021/03/04 05:33:47;;;;;;;13.68;10.63;;;;;;;;;;4986793;28;20180;-79
2021/03/04 05:36:13;;;;;;;14.63;10.55;;;;;;;;;;4986142;28;20186;-79
2021/03/04 05:38:39;;;;;;;20.58;11.43;;;;;;;;;;4986267;28;20187;-79
2021/03/04 05:41:06;;;;;;;13.13;10.07;;;;;;;;;;4986559;28;20191;-79
2021/03/04 05:43:32;;;;;;;13.55;10.35;;;;;;;;;;4984830;28;20687;-79
2021/03/04 05:45:58;;;;;;;18.17;10.63;;;;;;;;;;4985797;28;20211;-79
2021/03/04 05:48:25;;;;;;;14.45;11.20;;;;;;;;;;4965862;28;20580;-79
2021/03/04 05:50:52;;;;;;;12.85;10.88;;;;;;;;;;4967041;29;20180;-79
2021/03/04 05:53:19;;;;;;;14.00;9.90;;;;;;;;;;4966036;29;20188;-79
2021/03/04 05:55:45;;;;;;;15.73;11.13;;;;;;;;;;4974534;28;20227;-79
2021/03/04 05:58:12;;;;;;;11.95;10.23;;;;;;;;;;4966833;28;20683;-79
2021/03/04 06:00:38;;;;;;;21.20;10.02;;;;;;;;;;4965356;29;20316;-79
2021/03/04 06:03:06;;;;;;;13.10;9.43;;;;;;;;;;4966077;28;20204;-79
2021/03/04 06:05:32;;;;;;;13.35;9.48;;;;;;;;;;4966249;28;20180;-79
2021/03/04 06:07:58;;;;;;;17.95;10.23;;;;;;;;;;4981178;28;20185;-79
2021/03/04 06:10:24;;;;;;;16.17;9.60;;;;;;;;;;4965434;29;20185;-79
2021/03/04 06:12:50;;;;;;;16.20;11.30;;;;;;;;;;4965768;28;20247;-79
2021/03/04 06:15:16;;;;;;;13.17;9.43;;;;;;;;;;4965487;29;20212;-79
2021/03/04 06:17:59;;;;;;;15.32;10.32;;;;;;;;;;4980767;28;20918;-79
2021/03/04 06:20:35;;;;;;;13.30;9.55;;;;;;;;;;4964909;29;20196;-79
2021/03/04 06:23:01;;;;;;;13.43;9.52;;;;;;;;;;4966210;28;20211;-79
2021/03/04 06:25:27;;;;;;;14.80;9.70;;;;;;;;;;4979905;28;20235;-79
2021/03/04 06:27:53;;;;;;;14.35;9.57;;;;;;;;;;4966015;28;20540;-79
2021/03/04 06:30:19;;;;;;;13.90;10.60;;;;;;;;;;4965628;28;20547;-79
2021/03/04 06:32:54;;;;;;;11.07;9.65;;;;;;;;;;4980630;28;20439;-79
2021/03/04 06:35:21;;;;;;;10.90;9.80;;;;;;;;;;4965140;28;20188;-79
2021/03/04 06:37:47;;;;;;;15.68;11.10;;;;;;;;;;4980264;28;20198;-79
2021/03/04 06:40:21;;;;;;;17.35;11.00;;;;;;;;;;4964695;29;20244;-80
2021/03/04 06:42:47;;;;;;;14.95;10.65;;;;;;;;;;4949383;29;20276;-80
2021/03/04 06:45:25;;;;;;;21.70;12.38;;;;;;;;;;4964006;29;20177;-80
2021/03/04 06:47:52;;;;;;;14.63;10.95;;;;;;;;;;4972662;28;20215;-81
2021/03/04 06:50:28;;;;;;;14.70;11.30;;;;;;;;;;4969177;28;20198;-81
2021/03/04 06:52:54;;;;;;;17.33;12.30;;;;;;;;;;4965705;28;20188;-80
2021/03/04 06:55:20;;;;;;;15.07;11.35;;;;;;;;;;4965675;29;20222;-81
2021/03/04 06:57:59;;;;;;;15.60;10.27;;;;;;;;;;4949785;29;20192;-81
2021/03/04 07:00:25;;;;;;;14.43;11.85;;;;;;;;;;4963342;29;20199;-80
2021/03/04 07:02:55;;;;;;;14.70;11.68;;;;;;;;;;4966285;29;20216;-81
2021/03/04 07:05:23;;;;;;;20.10;12.50;;;;;;;;;;4964431;29;20501;-80
2021/03/04 07:07:51;;;;;;;18.05;12.73;;;;;;;;;;4965240;29;20188;-79
2021/03/04 07:10:17;;;;;;;26.50;14.50;;;;;;;;;;4960918;29;20195;-80
2021/03/04 07:12:45;;;;;;;16.45;12.52;;;;;;;;;;4964118;28;20212;-80
2021/03/04 07:15:11;;;;;;;15.18;12.15;;;;;;;;;;4966041;29;20180;-80
2021/03/04 07:17:38;;;;;;;17.17;12.15;;;;;;;;;;4964933;28;20216;-80
2021/03/04 07:20:04;;;;;;;17.52;13.77;;;;;;;;;;4960928;29;20200;-80
2021/03/04 07:22:31;;;;;;;15.98;11.57;;;;;;;;;;4965630;29;20235;-80
2021/03/04 07:24:58;;;;;;;14.82;11.35;;;;;;;;;;4965461;29;20205;-80
2021/03/04 07:27:24;;;;;;;14.60;11.18;;;;;;;;;;4964373;28;20263;-80
2021/03/04 07:29:51;;;;;;;17.55;11.95;;;;;;;;;;4963572;29;20746;-80
2021/03/04 07:32:18;;;;;;;17.75;12.80;;;;;;;;;;4965553;29;20209;-81
2021/03/04 07:34:44;;;;;;;20.65;15.82;;;;;;;;;;4964977;29;20199;-81
2021/03/04 07:37:14;;;;;;;15.38;12.35;;;;;;;;;;4963752;29;20180;-80
2021/03/04 07:39:41;;;;;;;18.95;12.55;;;;;;;;;;4979593;28;20204;-81
2021/03/04 07:42:16;;;;;;;14.95;11.45;;;;;;;;;;4963704;29;20208;-80
2021/03/04 07:44:42;;;;;;;19.80;12.45;;;;;;;;;;4964561;29;20192;-80
2021/03/04 07:47:09;;;;;;;20.23;11.75;;;;;;;;;;4960253;28;20251;-81
2021/03/04 07:49:36;;;;;;;20.13;13.00;;;;;;;;;;4963734;29;20192;-80
2021/03/04 07:52:11;;;;;;;15.05;10.63;;;;;;;;;;4963804;29;20252;-81
2021/03/04 07:54:39;;;;;;;16.80;10.55;;;;;;;;;;4964859;28;20216;-80
2021/03/04 07:57:05;;;;;;;14.52;11.43;;;;;;;;;;4964720;28;20653;-81
2021/03/04 07:59:31;;;;;;;20.15;13.73;;;;;;;;;;4963142;29;20261;-81
2021/03/04 08:01:58;;;;;;;14.57;10.98;;;;;;;;;;4965053;28;20298;-80
2021/03/04 08:04:24;;;;;;;20.63;11.57;;;;;;;;;;4963760;29;20197;-80
2021/03/04 08:06:51;;;;;;;19.70;11.50;;;;;;;;;;4962362;28;20208;-80
2021/03/04 08:09:37;;;;;;;17.02;11.20;;;;;;;;;;4964175;29;20185;-81
2021/03/04 08:12:06;;;;;;;17.08;10.55;;;;;;;;;;4962445;29;20204;-80
2021/03/04 08:14:32;;;;;;;17.15;11.07;;;;;;;;;;4966923;28;20184;-81
2021/03/04 08:16:58;;;;;;;14.82;10.85;;;;;;;;;;4962643;29;20188;-84
2021/03/04 08:19:27;;;;;;;16.15;11.15;;;;;;;;;;4963587;28;20192;-80
2021/03/04 08:21:57;;;;;;;19.20;11.48;;;;;;;;;;4962617;29;20212;-81
2021/03/04 08:24:23;;;;;;;18.30;9.40;;;;;;;;;;4960875;28;20176;-81
2021/03/04 08:26:49;;;;;;;20.58;11.13;;;;;;;;;;4962053;28;20532;-80
2021/03/04 08:29:15;;;;;;;16.90;11.23;;;;;;;;;;4961820;29;20192;-81
2021/03/04 08:31:48;;;;;;;16.75;10.45;;;;;;;;;;4964059;28;20188;-80
2021/03/04 08:34:15;;;;;;;16.20;10.23;;;;;;;;;;4964450;28;20181;-80
2021/03/04 08:36:45;;;;;;;13.88;10.82;;;;;;;;;;4963449;28;20494;-82
2021/03/04 08:39:11;;;;;;;18.73;10.82;;;;;;;;;;4965354;28;20737;-80
2021/03/04 08:41:37;;;;;;;22.08;11.02;;;;;;;;;;4962553;29;20188;-81
2021/03/04 08:44:14;;;;;;;22.63;10.60;;;;;;;;;;4963770;28;20185;-81
2021/03/04 08:46:41;;;;;;;14.35;10.02;;;;;;;;;;4961732;28;20191;-80
2021/03/04 08:49:07;;;;;;;16.08;10.00;;;;;;;;;;4980459;28;20187;-80
2021/03/04 08:51:34;;;;;;;14.65;9.63;;;;;;;;;;4982447;28;20226;-81
2021/03/04 08:54:00;;;;;;;12.55;9.43;;;;;;;;;;4982987;28;20180;-80
2021/03/04 08:56:26;;;;;;;13.35;9.07;;;;;;;;;;4982690;28;20251;-80
2021/03/04 08:58:52;;;;;;;22.93;11.10;;;;;;;;;;4977849;28;20180;-82
2021/03/04 09:01:18;;;;;;;13.13;9.93;;;;;;;;;;4986276;28;20498;-81
2021/03/04 09:03:45;;;;;;;15.25;9.90;;;;;;;;;;4969401;28;20207;-83
2021/03/04 09:06:12;;;;;;;16.52;9.45;;;;;;;;;;4987410;28;20168;-81
2021/03/04 09:08:38;;;;;;;11.07;8.23;;;;;;;;;;4966345;28;20188;-81
2021/03/04 09:11:05;;;;;;;9.90;7.63;;;;;;;;;;4986393;28;20195;-85
2021/03/04 09:13:32;;;;;;;11.95;9.10;;;;;;;;;;4986415;28;20709;-80
2021/03/04 09:16:06;;;;;;;15.30;8.85;;;;;;;;;;4967130;28;20239;-81
2021/03/04 09:18:33;;;;;;;14.82;8.13;;;;;;;;;;4985431;28;20242;-80
2021/03/04 09:20:59;;;;;;;21.13;9.05;;;;;;;;;;4983883;28;20388;-80
2021/03/04 09:23:26;;;;;;;12.10;8.70;;;;;;;;;;4982677;28;20207;-81
2021/03/04 09:25:56;;;;;;;13.20;8.30;;;;;;;;;;4985835;28;20180;-80
2021/03/04 09:28:22;;;;;;;10.30;7.90;;;;;;;;;;4983829;28;20192;-80
2021/03/04 09:30:48;;;;;;;9.30;7.53;;;;;;;;;;4985180;28;20906;-81
2021/03/04 09:33:18;;;;;;;12.27;7.75;;;;;;;;;;4985098;28;20171;-84
2021/03/04 09:35:58;;;;;;;13.80;8.45;;;;;;;;;;4981516;28;20195;-80
2021/03/04 09:38:25;;;;;;;17.58;8.35;;;;;;;;;;4980517;28;20238;-82
2021/03/04 09:40:51;;;;;;;12.68;8.35;;;;;;;;;;4982713;28;20235;-79
2021/03/04 09:43:19;;;;;;;10.73;8.55;;;;;;;;;;4982419;28;20207;-80
2021/03/04 09:45:46;;;;;;;9.90;8.00;;;;;;;;;;4968307;28;20191;-82
2021/03/04 09:48:12;;;;;;;13.35;8.52;;;;;;;;;;4984813;28;20231;-82
2021/03/04 09:50:38;;;;;;;17.95;9.95;;;;;;;;;;4982582;28;20184;-81
2021/03/04 09:53:05;;;;;;;17.33;9.13;;;;;;;;;;4984512;28;20215;-83
2021/03/04 09:55:51;;;;;;;13.00;9.32;;;;;;;;;;4965909;28;20188;-80
2021/03/04 09:58:20;;;;;;;14.35;8.88;;;;;;;;;;4985186;28;20206;-81
2021/03/04 10:00:46;;;;;;;12.88;7.10;;;;;;;;;;4968221;28;20188;-79
2021/03/04 10:03:13;;;;;;;10.80;7.95;;;;;;;;;;4986665;28;20215;-85
2021/03/04 10:05:48;;;;;;;12.60;8.82;;;;;;;;;;4985937;28;20207;-79
2021/03/04 10:08:15;;;;;;;10.82;8.43;;;;;;;;;;4965049;28;20187;-78
2021/03/04 10:10:41;;;;;;;13.02;8.60;;;;;;;;;;4984658;28;20194;-82
2021/03/04 10:13:07;;;;;;;9.60;6.95;;;;;;;;;;4965425;28;20204;-81
2021/03/04 10:15:35;;;;;;;14.93;8.15;;;;;;;;;;4985755;28;20262;-80
2021/03/04 10:18:12;;;;;;;11.77;7.28;;;;;;;;;;4986294;28;20191;-82
2021/03/04 10:20:40;;;;;;;13.57;8.40;;;;;;;;;;4986075;28;20242;-79
2021/03/04 10:23:06;;;;;;;11.02;8.27;;;;;;;;;;4985095;28;20203;-79
2021/03/04 10:25:32;;;;;;;12.18;8.80;;;;;;;;;;4985630;28;20195;-81
2021/03/04 10:27:59;;;;;;;17.45;9.05;;;;;;;;;;4965344;28;20196;-83
2021/03/04 10:30:25;;;;;;;11.65;8.10;;;;;;;;;;4968248;28;20168;-85
2021/03/04 10:32:51;;;;;;;13.55;8.70;;;;;;;;;;4983950;28;20204;-82
2021/03/04 10:35:17;;;;;;;15.80;9.20;;;;;;;;;;4985399;28;20648;-80
2021/03/04 10:37:44;;;;;;;11.32;7.80;;;;;;;;;;4964617;28;20928;-79
2021/03/04 10:40:11;;;;;;;12.95;8.18;;;;;;;;;;4965748;28;20234;-79
2021/03/04 10:42:37;;;;;;;10.45;7.65;;;;;;;;;;4985225;28;20211;-83
2021/03/04 10:45:07;;;;;;;14.50;8.18;;;;;;;;;;4986423;28;20172;-81
2021/03/04 10:47:33;;;;;;;21.80;8.88;;;;;;;;;;4984629;28;20227;-82
2021/03/04 10:49:59;;;;;;;14.23;8.25;;;;;;;;;;4984933;28;20183;-79
2021/03/04 10:52:25;;;;;;;9.77;7.68;;;;;;;;;;4964880;28;20586;-81
2021/03/04 10:54:52;;;;;;;10.02;8.60;;;;;;;;;;4985288;28;20243;-79
2021/03/04 10:57:18;;;;;;;16.30;7.90;;;;;;;;;;4968799;28;20566;-84
2021/03/04 10:59:44;;;;;;;11.55;6.72;;;;;;;;;;4984835;28;20543;-78
2021/03/04 11:02:10;;;;;;;14.10;8.50;;;;;;;;;;4964928;28;20242;-81
2021/03/04 11:04:36;;;;;;;11.98;7.55;;;;;;;;;;4984609;28;20436;-81
2021/03/04 11:07:02;;;;;;;12.80;7.80;;;;;;;;;;4964939;28;20185;-80
2021/03/04 11:09:28;;;;;;;9.50;7.45;;;;;;;;;;4984231;28;20183;-82
2021/03/04 11:11:54;;;;;;;11.40;7.13;;;;;;;;;;4982525;28;20199;-79
2021/03/04 11:14:20;;;;;;;9.43;7.13;;;;;;;;;;4983045;28;20195;-79
2021/03/04 11:16:46;;;;;;;10.60;8.23;;;;;;;;;;4964102;28;20222;-79
2021/03/04 11:19:12;;;;;;;9.88;6.90;;;;;;;;;;4983770;28;20481;-82
2021/03/04 11:21:40;;;;;;;12.25;7.63;;;;;;;;;;4983592;28;20595;-81
2021/03/04 11:24:07;;;;;;;15.70;7.78;;;;;;;;;;4983294;28;20749;-78
2021/03/04 11:26:37;;;;;;;9.45;7.15;;;;;;;;;;4981347;28;20195;-80
2021/03/04 11:29:03;;;;;;;9.43;6.63;;;;;;;;;;4984144;28;20640;-79
2021/03/04 11:31:29;;;;;;;8.88;7.05;;;;;;;;;;4963898;28;20190;-79
2021/03/04 11:33:55;;;;;;;9.57;7.35;;;;;;;;;;4966130;28;20183;-79
2021/03/04 11:36:21;;;;;;;12.10;6.80;;;;;;;;;;4984286;28;20179;-79
2021/03/04 11:38:47;;;;;;;6.90;6.23;;;;;;;;;;4982008;28;20435;-79
2021/03/04 11:41:13;;;;;;;11.53;7.57;;;;;;;;;;4972645;28;20725;-81
2021/03/04 11:43:39;;;;;;;12.40;7.40;;;;;;;;;;4964405;28;20463;-78
2021/03/04 11:46:05;;;;;;;8.52;7.57;;;;;;;;;;4963951;28;20799;-82
2021/03/04 11:48:31;;;;;;;10.83;8.43;;;;;;;;;;4965269;28;20219;-82
2021/03/04 11:50:57;;;;;;;11.07;7.50;;;;;;;;;;4967467;28;20431;-80
2021/03/04 11:53:23;;;;;;;10.55;7.95;;;;;;;;;;4984225;28;20553;-79
2021/03/04 11:55:49;;;;;;;13.10;9.00;;;;;;;;;;4984435;28;20271;-79
2021/03/04 11:58:15;;;;;;;8.27;6.67;;;;;;;;;;4964790;28;20451;-79
2021/03/04 12:00:41;;;;;;;9.27;7.47;;;;;;;;;;4984383;28;20442;-78
2021/03/04 12:03:07;;;;;;;14.10;9.27;;;;;;;;;;4982646;28;20199;-79
2021/03/04 12:05:33;;;;;;;16.42;10.63;;;;;;;;;;4983648;28;20195;-79
2021/03/04 12:07:59;;;;;;;10.67;9.40;;;;;;;;;;4982778;28;20179;-79
2021/03/04 12:10:25;;;;;;;10.00;8.40;;;;;;;;;;4982550;28;20431;-79
2021/03/04 12:12:51;;;;;;;15.35;10.85;;;;;;;;;;4983201;28;20222;-79
2021/03/04 12:15:17;;;;;;;13.65;9.38;;;;;;;;;;4984466;28;20231;-78
2021/03/04 12:17:44;;;;;;;14.02;9.07;;;;;;;;;;4982073;28;20192;-79
2021/03/04 12:20:10;;;;;;;12.30;8.88;;;;;;;;;;4964888;28;20432;-82
2021/03/04 12:22:36;;;;;;;12.95;8.98;;;;;;;;;;4983275;28;20920;-80
2021/03/04 12:25:03;;;;;;;13.48;8.73;;;;;;;;;;4984138;28;20195;-81
2021/03/04 12:27:29;;;;;;;15.50;9.45;;;;;;;;;;4965932;28;20208;-79
2021/03/04 12:29:55;;;;;;;11.60;8.80;;;;;;;;;;4967082;28;20172;-79
2021/03/04 12:32:21;;;;;;;10.48;8.45;;;;;;;;;;4971034;28;21015;-78
2021/03/04 12:34:47;;;;;;;11.70;8.53;;;;;;;;;;4987281;28;20195;-80
2021/03/04 12:37:13;;;;;;;12.27;8.10;;;;;;;;;;4987175;28;20444;-79
2021/03/04 12:39:39;;;;;;;16.50;8.77;;;;;;;;;;4968619;28;20503;-80
2021/03/04 12:42:05;;;;;;;12.43;8.97;;;;;;;;;;4988161;28;20458;-80
2021/03/04 12:44:31;;;;;;;11.30;8.10;;;;;;;;;;4987073;28;20519;-79
2021/03/04 12:46:57;;;;;;;14.43;8.50;;;;;;;;;;4985126;28;20714;-80
2021/03/04 12:49:23;;;;;;;13.53;8.20;;;;;;;;;;4985968;28;20439;-80
2021/03/04 12:51:49;;;;;;;16.02;7.90;;;;;;;;;;4966713;28;20526;-80
2021/03/04 12:54:15;;;;;;;12.17;7.87;;;;;;;;;;4970734;28;20179;-80
2021/03/04 12:56:41;;;;;;;10.47;7.80;;;;;;;;;;4984995;28;20434;-78
2021/03/04 12:59:07;;;;;;;14.60;8.38;;;;;;;;;;4984922;28;20449;-78
2021/03/04 13:01:33;;;;;;;13.13;7.50;;;;;;;;;;4980359;28;20189;-79
2021/03/04 13:03:59;;;;;;;12.00;8.75;;;;;;;;;;4985508;28;20445;-79
2021/03/04 13:06:25;;;;;;;9.63;7.53;;;;;;;;;;4985394;28;20187;-82
2021/03/04 13:08:52;;;;;;;13.85;8.80;;;;;;;;;;4985666;28;20192;-79
2021/03/04 13:11:18;;;;;;;22.45;9.18;;;;;;;;;;4966756;28;20183;-78
2021/03/04 13:13:44;;;;;;;14.80;8.63;;;;;;;;;;4985347;28;20199;-80
2021/03/04 13:16:10;;;;;;;10.63;7.80;;;;;;;;;;4985789;28;20212;-78
2021/03/04 13:18:37;;;;;;;11.23;7.47;;;;;;;;;;4968769;28;20179;-79
2021/03/04 13:21:03;;;;;;;9.20;7.40;;;;;;;;;;4987416;28;20179;-78
2021/03/04 13:23:29;;;;;;;14.20;8.55;;;;;;;;;;4986149;28;20216;-80
2021/03/04 13:25:55;;;;;;;10.80;7.32;;;;;;;;;;4986220;28;20211;-78
2021/03/04 13:28:21;;;;;;;11.80;7.23;;;;;;;;;;4965713;28;20195;-78
2021/03/04 13:30:47;;;;;;;13.23;7.27;;;;;;;;;;4973111;28;20435;-78
2021/03/04 13:33:13;;;;;;;8.40;6.27;;;;;;;;;;4987091;28;20427;-80
2021/03/04 13:35:38;;;;;;;8.03;6.17;;;;;;;;;;4984349;28;20454;-79
2021/03/04 13:38:04;;;;;;;8.80;6.40;;;;;;;;;;4977682;28;20579;-82
2021/03/04 13:40:32;;;;;;;7.88;6.35;;;;;;;;;;4965695;28;20442;-79
2021/03/04 13:42:57;;;;;;;11.05;6.25;;;;;;;;;;4984886;28;20772;-82
2021/03/04 13:45:24;;;;;;;7.60;6.80;;;;;;;;;;4985388;28;20183;-79
2021/03/04 13:47:50;;;;;;;9.20;6.72;;;;;;;;;;4985381;28;20469;-78
2021/03/04 13:50:16;;;;;;;11.77;7.90;;;;;;;;;;4973036;28;20688;-79
2021/03/04 13:52:42;;;;;;;9.10;6.75;;;;;;;;;;4984773;28;20255;-78
2021/03/04 13:55:08;;;;;;;8.57;6.93;;;;;;;;;;4986330;28;20191;-78
2021/03/04 13:57:34;;;;;;;7.70;7.00;;;;;;;;;;4983977;28;20188;-82
2021/03/04 14:00:00;;;;;;;9.50;7.75;;;;;;;;;;4984600;28;20187;-79
2021/03/04 14:02:26;;;;;;;9.33;7.50;;;;;;;;;;4983569;28;20199;-79
2021/03/04 14:04:52;;;;;;;13.25;7.70;;;;;;;;;;4985088;28;20529;-79
2021/03/04 14:07:18;;;;;;;12.45;8.02;;;;;;;;;;4965399;28;20247;-81
2021/03/04 14:09:44;;;;;;;12.97;8.50;;;;;;;;;;4984847;28;20211;-78
2021/03/04 14:12:10;;;;;;;12.48;8.43;;;;;;;;;;4984154;28;20428;-78
2021/03/04 14:14:37;;;;;;;10.90;7.78;;;;;;;;;;4967954;28;20190;-81
2021/03/04 14:17:03;;;;;;;12.75;9.05;;;;;;;;;;4983858;28;20756;-79
2021/03/04 14:19:29;;;;;;;14.13;8.63;;;;;;;;;;4966194;28;20211;-78
2021/03/04 14:21:55;;;;;;;12.57;9.13;;;;;;;;;;4984836;28;20259;-79
2021/03/04 14:24:20;;;;;;;10.60;8.57;;;;;;;;;;4967117;28;20423;-78
2021/03/04 14:26:46;;;;;;;11.80;7.90;;;;;;;;;;4967164;28;20415;-78